Nearby METAR Reports

 

KLOT - Romeoville/Chi, Illinois, USA
Distance from station: N 3mi, 5km
Updated: Sat, 22-Feb-2020 3:10am CST
Clear
Clear
 Wind from SW
Wind: SW 12 mph , 19 km/h
Temperature: 28°F , -2°C
Wind Chill: 18°F , -8°C
Dew Point: 18°F , -8°C
Humidity: 64%
Barometer: 30.27 inHg , 1025.1 hPa
Clouds: Clear
Visibility: 10 miles , 16 km
2020/02/22 09:10 KLOT 220910Z AUTO 22010KT 10SM CLR M02/M08 A3027 RMK AO2 T10251076
KJOT - Joliet, Illinois, USA
Distance from station: WSW 5mi, 7km
Updated: Sat, 22-Feb-2020 3:15am CST
Clear
Clear
 Wind from SW
Wind: SW 6 mph , 9 km/h
Temperature: 30°F , -1°C
Wind Chill: 24°F , -4°C
Dew Point: 18°F , -8°C
Humidity: 59%
Barometer: 30.28 inHg , 1025.4 hPa
Clouds: Clear
Visibility: 10 miles , 16 km
2020/02/22 09:15 KJOT 220915Z AUTO 22005KT 10SM CLR M01/M08 A3028 RMK AO2 T10151077
 
KC09 - Morris-Washburn, Illinois, USA
Distance from station: WSW 18mi, 29km
Updated: Sat, 22-Feb-2020 3:15am CST
Clear
Clear
 Wind from SW
Wind: SW 6 mph , 9 km/h
Temperature: 25°F , -4°C
Wind Chill: 18°F , -8°C
Dew Point: 18°F , -8°C
Humidity: 74%
Barometer: 30.27 inHg , 1025.1 hPa
Clouds: Clear
Visibility: 10 miles , 16 km
2020/02/22 09:15 KC09 220915Z AUTO 22005KT 10SM CLR M04/M08 A3027 RMK AO2 T10371079
KARR - Chicago/Aurora, Illinois, USA
Distance from station: NW 24mi, 39km
Updated: Sat, 22-Feb-2020 2:52am CST
Clear
Clear
 Wind from SSW
Wind: SSW 9 mph , 15 km/h
Temperature: 25°F , -4°C
Wind Chill: 16°F , -9°C
Dew Point: 16°F , -9°C
Humidity: 69%
Barometer: 30.25 inHg , 1024.4 hPa
Clouds: Clear
Visibility: 10 miles , 16 km
2020/02/22 08:52 KARR 220852Z AUTO 20008KT 10SM CLR M04/M09 A3025 RMK AO2 SLP252 T10391094 58019
 
KMDW - Chicago, Illinois, USA
Distance from station: NE 25mi, 39km
Updated: Sat, 22-Feb-2020 2:53am CST
Clear
Clear
 Wind from SSW
Wind: SSW 9 mph , 15 km/h
Temperature: 28°F , -2°C
Wind Chill: 19°F , -7°C
Dew Point: 16°F , -9°C
Humidity: 59%
Barometer: 30.27 inHg , 1025.1 hPa
Clouds: Clear
Visibility: 10 miles , 16 km
2020/02/22 08:53 KMDW 220853Z 21008KT 10SM CLR M02/M09 A3027 RMK AO2 SLP263 T10221089 58013
KDPA - Chicago/Dupage, Illinois, USA
Distance from station: NNW 26mi, 42km
Updated: Sat, 22-Feb-2020 2:52am CST
Clear
Clear
 Wind from SW
Wind: SW 12 mph , 19 km/h
Temperature: 25°F , -4°C
Wind Chill: 14°F , -10°C
Dew Point: 16°F , -9°C
Humidity: 69%
Barometer: 30.24 inHg , 1024 hPa
Clouds: Clear
Visibility: 10 miles , 16 km
2020/02/22 08:52 KDPA 220852Z 22010KT 10SM CLR M04/M09 A3024 RMK AO2 SLP250 T10391089 58018
 
KIGQ - Chicago/Lansing, Illinois, USA
Distance from station: E 30mi, 48km
Updated: Sat, 22-Feb-2020 3:15am CST
Clear
Clear
 Wind from SSW
Wind: SSW 8 mph , 13 km/h
Temperature: 23°F , -5°C
Wind Chill: 14°F , -10°C
Dew Point: 18°F , -8°C
Humidity: 80%
Barometer: 30.29 inHg , 1025.7 hPa
Clouds: Clear
Visibility: 10 miles , 16 km
2020/02/22 09:15 KIGQ 220915Z AUTO 20007KT 10SM CLR M05/M08 A3029 RMK AO2 T10461080
KORD - Chicago O'hare, Illinois, USA
Distance from station: NNE 31mi, 50km
Updated: Sat, 22-Feb-2020 2:51am CST
Clear
Clear
 Wind from SW
Wind: SW 16 mph , 26 km/h
Temperature: 30°F , -1°C
Wind Chill: 19°F , -7°C
Dew Point: 16°F , -9°C
Humidity: 55%
Barometer: 30.25 inHg , 1024.4 hPa
Clouds: Clear
Visibility: 10 miles , 16 km
2020/02/22 08:51 KORD 220851Z 22014KT 10SM CLR M01/M09 A3025 RMK AO2 SLP249 T10111094 57014
 
KGYY - Gary Regional, Indiana, USA
Distance from station: E 36mi, 58km
Updated: Sat, 22-Feb-2020 3:15am CST
Clear
Clear
 Wind from SSW
Wind: SSW 7 mph , 11 km/h
Temperature: 28°F , -2°C
Wind Chill: 21°F , -6°C
Dew Point: 16°F , -9°C
Humidity: 59%
Barometer: 30.30 inHg , 1026.1 hPa
Clouds: Clear
Visibility: 10 miles , 16 km
2020/02/22 09:15 KGYY 220915Z AUTO 20006KT 10SM CLR M02/M09 A3030 RMK AO2 T10251090
KIKK - Kankakee, Illinois, USA
Distance from station: SSE 36mi, 58km
Updated: Sat, 22-Feb-2020 3:15am CST
Clear
Clear
 Wind from SW
Wind: SW 6 mph , 9 km/h
Temperature: 25°F , -4°C
Wind Chill: 18°F , -8°C
Dew Point: 16°F , -9°C
Humidity: 69%
Barometer: 30.32 inHg , 1026.8 hPa
Clouds: Clear
Visibility: 10 miles , 16 km
2020/02/22 09:15 KIKK 220915Z AUTO 22005KT 10SM CLR M04/M09 A3032 RMK AO2 T10441087 PWINO
 
KDKB - De Kalb, Illinois, USA
Distance from station: NW 40mi, 65km
Updated: Sat, 22-Feb-2020 3:15am CST
Clear
Clear
 Wind from SSW
Wind: SSW 14 mph , 22 km/h
Temperature: 27°F , -3°C
Wind Chill: 16°F , -9°C
Dew Point: 16°F , -9°C
Humidity: 64%
Barometer: 30.23 inHg , 1023.7 hPa
Clouds: Clear
Visibility: 10 miles , 16 km
2020/02/22 09:15 KDKB 220915Z AUTO 21012KT 10SM CLR M03/M09 A3023 RMK AO2 T10311086
KPWK - Palwaukee, Illinois, USA
Distance from station: NNE 41mi, 65km
Updated: Sat, 22-Feb-2020 2:52am CST
Clear
Clear
 Wind from SW
Wind: SW 12 mph , 19 km/h, Gust: 18 mph , 30 km/h
Temperature: 30°F , -1°C
Wind Chill: 20°F , -7°C
Dew Point: 14°F , -10°C
Humidity: 51%
Barometer: 30.25 inHg , 1024.4 hPa
Clouds: Clear
Visibility: 10 miles , 16 km
2020/02/22 08:52 KPWK 220852Z AUTO 22010G16KT 10SM CLR M01/M10 A3025 RMK AO2 SLP251 T10061100 58014